createdAt,value
2023-03-05T00:01:35.488Z,68.25
2023-03-05T00:04:05.289Z,68.77
2023-03-05T00:06:34.285Z,69.42
2023-03-05T00:09:02.633Z,69.79
2023-03-05T00:11:33.667Z,69.19
2023-03-05T00:14:03.882Z,68.80
2023-03-05T00:16:32.140Z,68.85
2023-03-05T00:19:00.799Z,68.73
2023-03-05T00:21:38.434Z,68.95
2023-03-05T00:24:15.457Z,68.81
2023-03-05T00:26:43.427Z,68.51
2023-03-05T00:29:18.610Z,68.39
2023-03-05T00:31:48.927Z,68.47
2023-03-05T00:34:18.722Z,68.13
2023-03-05T00:36:52.103Z,68.77
2023-03-05T00:39:22.235Z,68.36
2023-03-05T00:41:50.473Z,68.33
2023-03-05T00:44:19.717Z,68.40
2023-03-05T00:46:46.726Z,68.20
2023-03-05T00:49:13.730Z,68.56
2023-03-05T00:51:44.189Z,68.89
2023-03-05T00:54:11.104Z,69.13
2023-03-05T00:56:39.993Z,69.13
2023-03-05T00:59:10.354Z,68.22
2023-03-05T01:01:37.361Z,68.22
2023-03-05T01:04:04.352Z,67.99
2023-03-05T01:06:31.211Z,67.70
2023-03-05T01:08:59.353Z,67.85
2023-03-05T01:11:28.315Z,67.59
2023-03-05T01:13:57.194Z,68.98
2023-03-05T01:16:27.681Z,68.90
2023-03-05T01:18:58.442Z,68.82
2023-03-05T01:21:26.252Z,69.07
2023-03-05T01:23:54.025Z,68.44
2023-03-05T01:26:21.260Z,68.29
2023-03-05T01:28:48.235Z,68.24
2023-03-05T01:31:15.349Z,68.06
2023-03-05T01:33:42.222Z,68.26
2023-03-05T01:36:15.029Z,67.80
2023-03-05T01:38:43.303Z,68.30
2023-03-05T01:41:11.364Z,67.72
2023-03-05T01:43:38.712Z,67.60
2023-03-05T01:46:22.145Z,67.45
2023-03-05T01:49:10.806Z,67.56
2023-03-05T01:51:43.210Z,67.95
2023-03-05T01:54:13.982Z,67.86
2023-03-05T01:56:42.390Z,67.35
2023-03-05T01:59:09.452Z,67.36
2023-03-05T02:01:46.366Z,67.41
2023-03-05T02:04:17.444Z,67.78
2023-03-05T02:06:45.650Z,67.90
2023-03-05T02:09:13.788Z,68.48
2023-03-05T02:11:41.581Z,68.37
2023-03-05T02:14:10.268Z,68.28
2023-03-05T02:16:38.938Z,68.09
2023-03-05T02:19:10.677Z,68.19
2023-03-05T02:21:45.089Z,68.59
2023-03-05T02:24:14.094Z,68.32
2023-03-05T02:26:44.929Z,68.08
2023-03-05T02:29:18.686Z,68.07
2023-03-05T02:31:46.460Z,68.42
2023-03-05T02:34:17.191Z,67.74
2023-03-05T02:36:44.082Z,67.63
2023-03-05T02:39:10.905Z,67.48
2023-03-05T02:41:38.044Z,68.32
2023-03-05T02:44:05.135Z,68.87
2023-03-05T02:46:32.884Z,69.53
2023-03-05T02:49:01.861Z,69.67
2023-03-05T02:51:28.774Z,69.37
2023-03-05T02:53:55.791Z,69.12
2023-03-05T02:56:22.735Z,69.34
2023-03-05T02:58:49.615Z,69.86
2023-03-05T03:01:16.618Z,69.63
2023-03-05T03:03:43.422Z,69.90
2023-03-05T03:06:10.361Z,69.62
2023-03-05T03:08:37.623Z,68.95
2023-03-05T03:11:12.663Z,69.54
2023-03-05T03:13:41.681Z,69.90
2023-03-05T03:16:14.639Z,70.33
2023-03-05T03:18:42.938Z,71.10
2023-03-05T03:21:16.172Z,71.06
2023-03-05T03:23:43.862Z,71.41
2023-03-05T03:26:11.558Z,71.71
2023-03-05T03:28:38.355Z,70.84
2023-03-05T03:31:06.490Z,70.63
2023-03-05T03:33:34.148Z,71.34
2023-03-05T03:36:01.153Z,71.89
2023-03-05T03:38:28.149Z,72.16
2023-03-05T03:40:55.265Z,71.39
2023-03-05T03:43:22.173Z,72.05
2023-03-05T03:45:49.162Z,72.62
2023-03-05T03:48:16.237Z,72.50
2023-03-05T03:50:44.835Z,72.45
2023-03-05T03:53:14.770Z,72.17
2023-03-05T03:55:46.608Z,72.83
2023-03-05T03:58:14.148Z,72.26
2023-03-05T04:00:42.440Z,72.44
2023-03-05T04:03:09.878Z,72.89
2023-03-05T04:05:36.818Z,72.88
2023-03-05T04:08:04.281Z,72.93
2023-03-05T04:10:32.049Z,72.65
2023-03-05T04:12:58.956Z,72.02
2023-03-05T04:15:26.344Z,72.23
2023-03-05T04:17:53.204Z,72.54
2023-03-05T04:20:20.295Z,72.62
2023-03-05T04:22:47.202Z,72.39
2023-03-05T04:25:16.909Z,72.69
2023-03-05T04:27:43.817Z,72.65
2023-03-05T04:30:17.697Z,73.00
2023-03-05T04:32:44.421Z,73.53
2023-03-05T04:35:11.568Z,73.14
2023-03-05T04:37:38.436Z,73.08
2023-03-05T04:40:06.853Z,73.25
2023-03-05T04:42:34.528Z,73.05
2023-03-05T04:45:01.422Z,72.75
2023-03-05T04:47:28.256Z,72.87
2023-03-05T04:49:58.069Z,73.15
2023-03-05T04:52:25.302Z,72.77
2023-03-05T04:54:54.598Z,72.74
2023-03-05T04:57:23.120Z,73.05
2023-03-05T04:59:50.813Z,72.26
2023-03-05T05:02:17.873Z,72.02
2023-03-05T05:04:45.971Z,70.79
2023-03-05T05:07:15.504Z,70.98
2023-03-05T05:09:42.376Z,70.99
2023-03-05T05:12:10.645Z,70.79
2023-03-05T05:14:38.174Z,71.31
2023-03-05T05:17:05.946Z,71.71
2023-03-05T05:19:34.084Z,71.94
2023-03-05T05:22:01.371Z,71.65
2023-03-05T05:24:28.341Z,71.54
2023-03-05T05:26:55.945Z,72.21
2023-03-05T05:29:23.470Z,71.91
2023-03-05T05:31:50.483Z,71.69
2023-03-05T05:34:17.414Z,72.40
2023-03-05T05:36:44.234Z,72.17
2023-03-05T05:39:11.192Z,72.39
2023-03-05T05:41:38.812Z,71.79
2023-03-05T05:44:05.604Z,72.17
2023-03-05T05:46:33.415Z,71.95
2023-03-05T05:49:00.461Z,71.54
2023-03-05T05:51:27.605Z,70.63
2023-03-05T05:53:54.484Z,70.43
2023-03-05T05:56:22.331Z,70.00
2023-03-05T05:58:49.522Z,69.54
2023-03-05T06:01:32.058Z,69.46
2023-03-05T06:04:00.217Z,69.38
2023-03-05T06:06:29.474Z,69.86
2023-03-05T06:08:59.004Z,70.02
2023-03-05T06:11:27.853Z,70.53
2023-03-05T06:13:55.834Z,71.24
2023-03-05T06:16:25.973Z,71.28
2023-03-05T06:18:53.532Z,71.17
2023-03-05T06:21:23.963Z,71.44
2023-03-05T06:23:51.304Z,71.70
2023-03-05T06:26:21.136Z,71.76
2023-03-05T06:28:47.989Z,71.69
2023-03-05T06:31:18.059Z,71.29
2023-03-05T06:33:45.970Z,70.91
2023-03-05T06:36:17.637Z,70.54
2023-03-05T06:38:48.916Z,69.82
2023-03-05T06:41:22.783Z,69.55
2023-03-05T06:43:55.660Z,68.93
2023-03-05T06:46:34.646Z,68.96
2023-03-05T06:49:04.017Z,68.68
2023-03-05T06:51:35.013Z,67.97
2023-03-05T06:54:05.334Z,68.25
2023-03-05T06:56:32.399Z,67.42
2023-03-05T06:59:01.091Z,67.29
2023-03-05T07:01:28.068Z,67.75
2023-03-05T07:03:59.040Z,68.28
2023-03-05T07:06:32.336Z,68.86
2023-03-05T07:09:02.372Z,68.25
2023-03-05T07:11:30.286Z,68.00
2023-03-05T07:14:00.083Z,67.81
2023-03-05T07:16:30.905Z,67.31
2023-03-05T07:19:00.657Z,67.06
2023-03-05T07:21:30.370Z,67.07
2023-03-05T07:24:00.787Z,65.83
2023-03-05T07:26:31.100Z,65.87
2023-03-05T07:28:58.088Z,65.63
2023-03-05T07:31:31.076Z,65.09
2023-03-05T07:34:01.389Z,65.15
2023-03-05T07:36:30.097Z,65.15
2023-03-05T07:38:57.391Z,65.39
2023-03-05T07:41:24.409Z,65.43
2023-03-05T07:43:53.715Z,65.88
2023-03-05T07:46:24.760Z,65.63
2023-03-05T07:48:52.886Z,65.44
2023-03-05T07:51:20.733Z,66.13
2023-03-05T07:53:49.582Z,65.78
2023-03-05T07:56:25.136Z,65.22
2023-03-05T07:58:53.261Z,64.93
2023-03-05T08:01:21.316Z,64.00
2023-03-05T08:03:48.358Z,64.52
2023-03-05T08:06:15.447Z,65.29
2023-03-05T08:08:42.988Z,64.52
2023-03-05T08:11:13.604Z,64.25
2023-03-05T08:13:43.074Z,64.58
2023-03-05T08:16:17.165Z,65.15
2023-03-05T08:18:45.786Z,64.57
2023-03-05T08:21:21.732Z,63.58
2023-03-05T08:23:50.576Z,64.13
2023-03-05T08:26:22.471Z,63.08
2023-03-05T08:28:52.785Z,63.35
2023-03-05T08:31:24.388Z,62.54
2023-03-05T08:33:54.238Z,62.77
2023-03-05T08:36:22.352Z,62.50
2023-03-05T08:38:50.733Z,62.25
2023-03-05T08:41:20.099Z,61.44
2023-03-05T08:43:47.998Z,61.56
2023-03-05T08:46:16.006Z,61.82
2023-03-05T08:48:43.902Z,61.37
2023-03-05T08:51:16.267Z,61.11
2023-03-05T08:53:45.901Z,61.21
2023-03-05T08:56:16.855Z,59.99
2023-03-05T08:58:46.592Z,59.62
2023-03-05T09:01:15.810Z,59.04
2023-03-05T09:03:43.536Z,59.14
2023-03-05T09:06:12.707Z,58.50
2023-03-05T09:08:41.560Z,59.46
2023-03-05T09:11:12.792Z,58.10
2023-03-05T09:13:40.763Z,58.42
2023-03-05T09:16:12.606Z,57.66
2023-03-05T09:18:41.210Z,58.11
2023-03-05T09:21:13.088Z,57.48
2023-03-05T09:23:40.670Z,56.09
2023-03-05T09:26:12.359Z,55.31
2023-03-05T09:28:40.864Z,54.66
2023-03-05T09:31:10.020Z,56.02
2023-03-05T09:33:38.437Z,55.84
2023-03-05T09:36:23.904Z,55.09
2023-03-05T09:38:52.005Z,56.11
2023-03-05T09:41:21.508Z,55.66
2023-03-05T09:43:56.942Z,53.64
2023-03-05T09:46:44.393Z,54.59
2023-03-05T09:49:29.836Z,55.02
2023-03-05T09:52:03.560Z,55.12
2023-03-05T09:54:41.828Z,53.72
2023-03-05T09:57:18.671Z,54.37
2023-03-05T10:00:00.010Z,53.72
2023-03-05T10:02:36.319Z,54.62
2023-03-05T10:05:42.166Z,54.69
2023-03-05T10:08:11.774Z,54.47
2023-03-05T10:10:47.701Z,54.05
2023-03-05T10:13:24.863Z,53.92
2023-03-05T10:16:27.840Z,53.85
2023-03-05T10:19:18.039Z,52.07
2023-03-05T10:21:44.819Z,52.03
2023-03-05T10:24:40.993Z,51.88
2023-03-05T10:27:14.888Z,51.30
2023-03-05T10:30:12.989Z,52.30
2023-03-05T10:32:56.232Z,51.89
2023-03-05T10:35:23.940Z,51.96
2023-03-05T10:38:22.810Z,51.63
2023-03-05T10:40:54.588Z,52.05
2023-03-05T10:43:27.061Z,51.96
2023-03-05T10:45:57.283Z,51.86
2023-03-05T10:48:42.294Z,52.38
2023-03-05T10:51:27.638Z,52.30
2023-03-05T10:53:59.344Z,51.51
2023-03-05T10:56:29.722Z,52.00
2023-03-05T10:58:57.883Z,52.26
2023-03-05T11:01:28.334Z,52.15
2023-03-05T11:04:29.900Z,51.28
2023-03-05T11:06:57.689Z,50.82
2023-03-05T11:09:29.944Z,50.32
2023-03-05T11:12:12.454Z,50.72
2023-03-05T11:15:00.370Z,50.08
2023-03-05T11:17:34.066Z,50.43
2023-03-05T11:20:29.581Z,50.75
2023-03-05T11:23:14.578Z,51.30
2023-03-05T11:25:59.090Z,51.24
2023-03-05T11:28:36.652Z,50.02
2023-03-05T11:31:18.632Z,50.31
2023-03-05T11:34:04.628Z,51.06
2023-03-05T11:37:04.760Z,50.34
2023-03-05T11:40:05.986Z,49.42
2023-03-05T11:42:34.259Z,51.03
2023-03-05T11:45:04.403Z,50.08
2023-03-05T11:47:45.880Z,49.95
2023-03-05T11:50:26.864Z,49.44
2023-03-05T11:53:04.335Z,48.99
2023-03-05T11:56:04.159Z,48.32
2023-03-05T11:58:50.645Z,46.13
2023-03-05T12:01:21.359Z,45.87
2023-03-05T12:03:50.873Z,46.96
2023-03-05T12:06:21.824Z,46.42
2023-03-05T12:08:55.378Z,47.13
2023-03-05T12:11:33.304Z,47.84
2023-03-05T12:14:20.092Z,49.46
2023-03-05T12:17:00.592Z,50.04
2023-03-05T12:19:54.403Z,49.08
2023-03-05T12:22:24.502Z,49.14
2023-03-05T12:24:52.899Z,49.49
2023-03-05T12:27:37.229Z,48.88
2023-03-05T12:30:05.604Z,49.61
2023-03-05T12:32:33.363Z,49.46
2023-03-05T12:35:29.600Z,49.55
2023-03-05T12:38:01.721Z,49.69
2023-03-05T12:40:31.186Z,49.50
2023-03-05T12:43:05.955Z,49.95
2023-03-05T12:45:36.028Z,49.98
2023-03-05T12:48:03.010Z,50.16
2023-03-05T12:50:30.752Z,49.23
2023-03-05T12:52:59.690Z,49.53
2023-03-05T12:55:33.697Z,48.79
2023-03-05T12:58:10.414Z,49.43
2023-03-05T13:00:49.656Z,48.35
2023-03-05T13:03:26.480Z,48.53
2023-03-05T13:05:56.474Z,47.99
2023-03-05T13:08:27.257Z,48.14
2023-03-05T13:11:06.461Z,46.93
2023-03-05T13:13:37.684Z,46.63
2023-03-05T13:16:06.157Z,46.14
2023-03-05T13:18:33.595Z,45.70
2023-03-05T13:21:21.060Z,44.78
2023-03-05T13:23:58.230Z,44.91
2023-03-05T13:26:35.752Z,44.15
2023-03-05T13:29:18.575Z,44.76
2023-03-05T13:31:54.622Z,44.91
2023-03-05T13:34:40.802Z,45.26
2023-03-05T13:37:18.809Z,45.55
2023-03-05T13:39:57.139Z,45.58
2023-03-05T13:42:31.381Z,45.60
2023-03-05T13:45:01.540Z,44.77
2023-03-05T13:47:32.360Z,45.35
2023-03-05T13:50:06.964Z,45.78
2023-03-05T13:52:38.892Z,45.91
2023-03-05T13:55:16.888Z,46.36
2023-03-05T13:57:51.453Z,45.74
2023-03-05T14:00:39.233Z,46.03
2023-03-05T14:03:23.147Z,46.34
2023-03-05T14:05:52.177Z,46.81
2023-03-05T14:08:25.520Z,45.92
2023-03-05T14:10:57.701Z,45.68
2023-03-05T14:13:27.965Z,45.53
2023-03-05T14:16:08.098Z,45.91
2023-03-05T14:18:36.273Z,45.64
2023-03-05T14:21:08.975Z,45.68
2023-03-05T14:23:46.028Z,46.28
2023-03-05T14:26:29.303Z,46.53
2023-03-05T14:29:18.580Z,46.86
2023-03-05T14:31:53.592Z,46.82
2023-03-05T14:34:42.977Z,46.75
2023-03-05T14:37:35.928Z,47.56
2023-03-05T14:40:20.659Z,47.93
2023-03-05T14:42:57.806Z,47.61
2023-03-05T14:45:34.523Z,47.65
2023-03-05T14:48:04.568Z,47.59
2023-03-05T14:50:43.119Z,47.76
2023-03-05T14:53:15.889Z,47.17
2023-03-05T14:55:51.228Z,48.36
2023-03-05T14:58:21.832Z,49.10
2023-03-05T15:00:51.287Z,48.51
2023-03-05T15:03:22.071Z,48.09
2023-03-05T15:05:52.862Z,47.80
2023-03-05T15:08:28.146Z,47.42
2023-03-05T15:10:57.909Z,48.36
2023-03-05T15:13:27.616Z,48.28
2023-03-05T15:15:56.510Z,49.52
2023-03-05T15:18:25.748Z,49.25
2023-03-05T15:20:53.520Z,48.96
2023-03-05T15:23:21.644Z,49.70
2023-03-05T15:25:48.734Z,49.58
2023-03-05T15:28:18.524Z,49.39
2023-03-05T15:30:47.335Z,49.25
2023-03-05T15:33:17.389Z,48.82
2023-03-05T15:35:45.363Z,48.58
2023-03-05T15:38:16.775Z,48.60
2023-03-05T15:40:47.138Z,48.99
2023-03-05T15:43:15.211Z,48.87
2023-03-05T15:45:42.539Z,48.41
2023-03-05T15:48:10.299Z,48.82
2023-03-05T15:50:39.832Z,48.52
2023-03-05T15:53:09.391Z,48.45
2023-03-05T15:55:40.935Z,48.14
2023-03-05T15:58:09.449Z,47.90
2023-03-05T16:00:39.732Z,47.38
2023-03-05T16:03:06.880Z,47.24
2023-03-05T16:05:35.684Z,47.34
2023-03-05T16:08:04.320Z,46.64
2023-03-05T16:10:33.623Z,47.33
2023-03-05T16:13:04.720Z,47.65
2023-03-05T16:15:35.567Z,47.40
2023-03-05T16:18:08.218Z,47.70
2023-03-05T16:20:36.464Z,47.93
2023-03-05T16:23:05.844Z,48.68
2023-03-05T16:25:34.954Z,49.18
2023-03-05T16:28:03.984Z,49.02
2023-03-05T16:30:33.260Z,48.60
2023-03-05T16:33:02.184Z,48.22
2023-03-05T16:35:30.271Z,48.82
2023-03-05T16:37:58.351Z,48.91
2023-03-05T16:40:34.200Z,49.10
2023-03-05T16:43:06.604Z,50.93
2023-03-05T16:45:35.422Z,52.04
2023-03-05T16:48:03.262Z,52.26
2023-03-05T16:50:30.152Z,53.75
2023-03-05T16:52:57.109Z,53.24
2023-03-05T16:55:25.052Z,52.55
2023-03-05T16:57:52.872Z,51.92
2023-03-05T17:00:24.749Z,52.47
2023-03-05T17:02:52.780Z,53.02
2023-03-05T17:05:20.749Z,53.48
2023-03-05T17:07:48.593Z,54.33
2023-03-05T17:10:18.877Z,53.60
2023-03-05T17:12:47.563Z,53.49
2023-03-05T17:15:16.112Z,51.85
2023-03-05T17:17:43.965Z,52.75
2023-03-05T17:20:13.276Z,53.05
2023-03-05T17:22:41.476Z,52.80
2023-03-05T17:25:09.541Z,52.81
2023-03-05T17:27:38.404Z,52.67
2023-03-05T17:30:08.324Z,52.41
2023-03-05T17:32:36.377Z,52.24
2023-03-05T17:35:05.384Z,52.00
2023-03-05T17:37:34.519Z,51.54
2023-03-05T17:40:01.477Z,51.82
2023-03-05T17:42:28.520Z,51.76
2023-03-05T17:44:56.383Z,51.71
2023-03-05T17:47:26.491Z,52.34
2023-03-05T17:49:54.355Z,52.29
2023-03-05T17:52:23.736Z,51.74
2023-03-05T17:54:53.254Z,51.74
2023-03-05T17:57:21.912Z,52.23
2023-03-05T17:59:49.750Z,52.44
2023-03-05T18:02:17.913Z,52.43
2023-03-05T18:04:44.769Z,52.69
2023-03-05T18:07:11.712Z,51.81
2023-03-05T18:09:40.314Z,52.14
2023-03-05T18:12:07.506Z,51.43
2023-03-05T18:14:35.383Z,51.63
2023-03-05T18:17:02.438Z,50.76
2023-03-05T18:19:30.277Z,51.37
2023-03-05T18:21:58.057Z,50.95
2023-03-05T18:24:25.950Z,51.02
2023-03-05T18:26:53.697Z,51.20
2023-03-05T18:29:22.518Z,51.45
2023-03-05T18:31:51.138Z,51.66
2023-03-05T18:34:21.144Z,51.36
2023-03-05T18:36:49.321Z,51.40
2023-03-05T18:39:18.890Z,51.56
2023-03-05T18:41:47.403Z,51.76
2023-03-05T18:44:15.527Z,51.54
2023-03-05T18:46:43.519Z,52.07
2023-03-05T18:49:12.248Z,52.21
2023-03-05T18:51:42.004Z,52.25
2023-03-05T18:54:10.280Z,52.68
2023-03-05T18:56:38.094Z,53.62
2023-03-05T18:59:05.313Z,54.12
2023-03-05T19:01:33.194Z,54.12
2023-03-05T19:04:00.321Z,54.35
2023-03-05T19:06:27.410Z,54.09
2023-03-05T19:09:29.222Z,54.37
2023-03-05T19:11:57.101Z,54.35
2023-03-05T19:14:25.171Z,54.63
2023-03-05T19:16:52.941Z,55.13
2023-03-05T19:19:24.383Z,54.96
2023-03-05T19:21:54.173Z,56.36
2023-03-05T19:24:24.225Z,56.97
2023-03-05T19:26:55.481Z,55.96
2023-03-05T19:29:26.861Z,55.31
2023-03-05T19:31:54.808Z,55.14
2023-03-05T19:34:22.612Z,54.49
2023-03-05T19:36:51.234Z,54.36
2023-03-05T19:39:20.008Z,54.15
2023-03-05T19:41:47.868Z,53.80
2023-03-05T19:44:15.680Z,53.94
2023-03-05T19:46:43.639Z,53.71
2023-03-05T19:49:11.753Z,53.63
2023-03-05T19:51:42.288Z,53.72
2023-03-05T19:54:11.217Z,53.14
2023-03-05T19:56:41.613Z,53.20
2023-03-05T19:59:10.347Z,53.76
2023-03-05T20:01:37.818Z,54.59
2023-03-05T20:04:06.301Z,54.29
2023-03-05T20:06:34.009Z,56.08
2023-03-05T20:09:02.209Z,55.87
2023-03-05T20:11:30.034Z,55.95
2023-03-05T20:13:59.238Z,56.64
2023-03-05T20:16:30.095Z,57.49
2023-03-05T20:18:58.882Z,57.92
2023-03-05T20:21:29.375Z,57.33
2023-03-05T20:23:58.910Z,57.35
2023-03-05T20:26:27.737Z,56.68
2023-03-05T20:28:57.249Z,56.93
2023-03-05T20:31:27.999Z,56.25
2023-03-05T20:33:57.859Z,56.33
2023-03-05T20:36:25.965Z,56.07
2023-03-05T20:38:55.929Z,56.15
2023-03-05T20:41:23.931Z,55.77
2023-03-05T20:43:52.425Z,56.17
2023-03-05T20:46:28.123Z,56.66
2023-03-05T20:48:59.293Z,56.32
2023-03-05T20:51:35.361Z,56.98
2023-03-05T20:54:10.650Z,56.52
2023-03-05T20:56:39.092Z,56.53
2023-03-05T20:59:09.033Z,56.74
2023-03-05T21:01:40.068Z,56.48
2023-03-05T21:04:07.871Z,56.83
2023-03-05T21:06:35.718Z,56.39
2023-03-05T21:09:03.954Z,55.92
2023-03-05T21:11:32.388Z,55.51
2023-03-05T21:13:59.545Z,54.95
2023-03-05T21:16:28.346Z,54.06
2023-03-05T21:18:58.032Z,54.46
2023-03-05T21:21:25.366Z,56.09
2023-03-05T21:23:53.711Z,57.47
2023-03-05T21:26:21.976Z,56.57
2023-03-05T21:28:51.637Z,56.60
2023-03-05T21:31:22.674Z,55.95
2023-03-05T21:33:50.529Z,54.94
2023-03-05T21:36:20.106Z,54.14
2023-03-05T21:38:48.543Z,53.67
2023-03-05T21:41:18.746Z,53.25
2023-03-05T21:43:46.612Z,53.98
2023-03-05T21:46:15.081Z,54.02
2023-03-05T21:48:42.748Z,53.55
2023-03-05T21:51:21.911Z,54.05
2023-03-05T21:53:50.355Z,53.16
2023-03-05T21:56:25.558Z,52.28
2023-03-05T21:58:54.232Z,52.06
2023-03-05T22:01:22.236Z,51.32
2023-03-05T22:03:50.318Z,50.83
2023-03-05T22:06:19.500Z,51.48
2023-03-05T22:08:49.224Z,51.30
2023-03-05T22:11:18.630Z,50.57
2023-03-05T22:13:47.387Z,50.29
2023-03-05T22:16:26.796Z,49.54
2023-03-05T22:18:56.442Z,50.05
2023-03-05T22:21:27.432Z,51.70
2023-03-05T22:23:58.895Z,50.92
2023-03-05T22:26:35.658Z,50.55
2023-03-05T22:29:04.821Z,50.27
2023-03-05T22:31:32.611Z,49.81
2023-03-05T22:34:00.350Z,49.66
2023-03-05T22:36:28.043Z,49.28
2023-03-05T22:38:55.729Z,50.46
2023-03-05T22:41:23.431Z,49.84
2023-03-05T22:43:51.747Z,50.77
2023-03-05T22:46:23.239Z,50.35
2023-03-05T22:48:53.614Z,50.15
2023-03-05T22:51:22.516Z,49.56
2023-03-05T22:53:49.675Z,50.13
2023-03-05T22:56:19.446Z,50.31
2023-03-05T22:58:46.749Z,50.08
2023-03-05T23:01:21.728Z,49.06
2023-03-05T23:04:33.264Z,50.05
2023-03-05T23:07:00.454Z,48.76
2023-03-05T23:09:28.169Z,50.37
2023-03-05T23:11:56.217Z,51.12
2023-03-05T23:14:23.248Z,50.98
2023-03-05T23:16:51.097Z,51.19
2023-03-05T23:19:18.992Z,51.26
2023-03-05T23:21:45.963Z,51.12
2023-03-05T23:24:14.817Z,51.12
2023-03-05T23:26:43.422Z,51.28
2023-03-05T23:29:11.377Z,51.15
2023-03-05T23:31:39.261Z,50.53
2023-03-05T23:34:07.067Z,49.31
2023-03-05T23:36:53.490Z,49.17
2023-03-05T23:39:21.301Z,49.37
2023-03-05T23:41:48.981Z,49.37
2023-03-05T23:44:16.856Z,48.62
2023-03-05T23:46:43.717Z,49.66
2023-03-05T23:49:10.949Z,51.51
2023-03-05T23:51:38.725Z,51.44
2023-03-05T23:54:06.645Z,51.69
2023-03-05T23:56:34.636Z,51.49
2023-03-05T23:59:01.796Z,52.94
